Time;durP1;ratioP1;P1;durP2;ratioP2;P2;SDS_P1;SDS_P2;PMS_P1;PMS_P2;Temp;Humidity;BMP_temperature;BMP_pressure;BME280_temperature;BME280_humidity;BME280_pressure;Samples;Min_cycle;Max_cycle;Signal;HPM_P1;HPM_P2
2022/09/10 00:01:24;;;;;;;22.30;7.13;;;15.20;99.90;;;14.49;100.00;97206.22;4990794;28;20445;-71
2022/09/10 00:03:52;;;;;;;18.10;6.53;;;15.20;99.90;;;14.27;100.00;97198.66;4990178;28;20461;-71
2022/09/10 00:06:18;;;;;;;23.35;8.10;;;15.10;99.90;;;14.27;100.00;97203.19;4990763;28;20453;-71
2022/09/10 00:08:46;;;;;;;15.95;6.22;;;15.10;99.90;;;14.15;100.00;97198.22;4990477;28;20496;-71
2022/09/10 00:11:13;;;;;;;26.48;7.85;;;15.00;99.90;;;14.20;100.00;97194.75;4990744;28;20402;-71
2022/09/10 00:13:41;;;;;;;18.92;6.85;;;15.00;99.90;;;14.20;100.00;97189.41;4990126;28;20498;-71
2022/09/10 00:16:12;;;;;;;18.50;6.50;;;14.90;99.90;;;14.07;100.00;97179.38;4990653;28;20408;-71
2022/09/10 00:18:40;;;;;;;17.27;6.50;;;14.80;99.90;;;14.04;100.00;97186.06;4992765;28;20399;-70
2022/09/10 00:21:09;;;;;;;18.50;7.03;;;14.90;99.90;;;14.10;100.00;97182.28;4994221;28;20482;-70
2022/09/10 00:23:36;;;;;;;18.77;6.20;;;14.90;99.90;;;13.95;100.00;97183.19;4993729;28;20460;-71
2022/09/10 00:26:12;;;;;;;14.65;5.60;;;14.70;99.90;;;13.94;100.00;97178.16;4994095;28;21031;-70
2022/09/10 00:28:38;;;;;;;20.15;5.75;;;14.70;99.90;;;13.85;100.00;97177.94;4994065;28;20501;-71
2022/09/10 00:31:04;;;;;;;15.15;5.22;;;14.70;99.90;;;13.93;100.00;97184.53;4993972;28;20413;-70
2022/09/10 00:33:30;;;;;;;15.97;5.47;;;14.70;99.90;;;13.84;100.00;97186.19;4993416;28;20433;-71
2022/09/10 00:35:57;;;;;;;14.55;5.22;;;14.70;99.90;;;13.82;100.00;97185.69;4994051;28;20406;-71
2022/09/10 00:38:23;;;;;;;13.07;4.68;;;14.70;99.90;;;13.83;100.00;97185.41;4993982;28;20430;-70
2022/09/10 00:40:49;;;;;;;13.60;5.40;;;14.60;99.90;;;13.84;100.00;97184.34;4976446;28;20428;-70
2022/09/10 00:43:19;;;;;;;11.57;5.13;;;14.60;99.90;;;13.85;100.00;97190.44;4993452;28;20407;-71
2022/09/10 00:45:49;;;;;;;12.23;4.85;;;14.70;99.90;;;14.01;100.00;97185.81;4993825;28;20477;-71
2022/09/10 00:48:21;;;;;;;11.80;4.13;;;14.80;99.90;;;13.76;100.00;97190.22;4993784;28;20406;-71
2022/09/10 00:50:50;;;;;;;13.00;4.63;;;14.60;99.90;;;13.82;100.00;97189.16;4993702;28;20420;-71
2022/09/10 00:53:22;;;;;;;10.55;4.72;;;14.60;99.90;;;13.77;100.00;97189.16;4993120;28;20497;-71
2022/09/10 00:55:52;;;;;;;11.00;4.30;;;14.60;99.90;;;13.88;100.00;97188.03;4993625;28;20545;-71
2022/09/10 00:58:21;;;;;;;10.65;5.18;;;14.70;99.90;;;13.89;100.00;97188.84;4993626;28;20465;-71
2022/09/10 01:00:47;;;;;;;15.13;5.20;;;14.80;99.90;;;13.98;100.00;97178.41;4993471;28;20406;-70
2022/09/10 01:03:15;;;;;;;15.60;5.20;;;14.80;99.90;;;14.11;100.00;97185.75;4992964;28;20407;-71
2022/09/10 01:05:44;;;;;;;10.82;4.70;;;14.90;99.90;;;13.93;100.00;97181.88;4993449;28;20407;-71
2022/09/10 01:08:12;;;;;;;15.25;5.97;;;14.80;99.90;;;14.09;100.00;97182.56;4993390;28;20410;-71
2022/09/10 01:10:54;;;;;;;14.25;5.20;;;14.80;99.90;;;14.04;100.00;97183.41;4993228;28;20410;-71
2022/09/10 01:13:39;;;;;;;11.15;4.90;;;14.90;99.90;;;13.96;100.00;97184.00;4992828;28;20440;-71
2022/09/10 01:16:17;;;;;;;12.63;4.77;;;14.80;99.90;;;13.98;100.00;97181.88;4993333;28;20990;-71
2022/09/10 01:18:57;;;;;;;13.35;5.38;;;14.80;99.90;;;14.02;100.00;97188.22;4993153;28;20768;-71
2022/09/10 01:21:30;;;;;;;19.05;5.43;;;14.90;99.90;;;14.12;100.00;97185.47;4993184;28;20409;-71
2022/09/10 01:24:41;;;;;;;11.95;4.93;;;14.90;99.90;;;14.03;100.00;97184.47;4992729;28;20401;-71
2022/09/10 01:27:40;;;;;;;12.10;4.90;;;14.80;99.90;;;13.90;100.00;97191.22;4993017;28;20434;-71
2022/09/10 01:30:13;;;;;;;12.55;4.45;;;14.70;99.90;;;13.80;100.00;97188.63;4975370;28;20400;-71
2022/09/10 01:33:05;;;;;;;13.27;4.97;;;14.70;99.90;;;13.77;100.00;97191.03;4992757;28;20895;-70
2022/09/10 01:35:39;;;;;;;12.18;4.97;;;14.70;99.90;;;13.81;100.00;97197.41;4992829;28;21179;-71
2022/09/10 01:38:10;;;;;;;9.40;4.72;;;14.70;99.90;;;13.86;100.00;97198.16;4992936;28;20413;-71
2022/09/10 01:40:37;;;;;;;12.68;5.07;;;14.70;99.90;;;13.98;100.00;97197.03;4975327;28;20446;-70
2022/09/10 01:43:07;;;;;;;13.05;4.45;;;14.70;99.90;;;13.88;100.00;97195.22;4992306;28;20403;-71
2022/09/10 01:45:44;;;;;;;11.13;4.55;;;14.70;99.90;;;13.86;100.00;97192.03;4992654;28;20398;-71
2022/09/10 01:48:38;;;;;;;9.75;4.10;;;14.60;99.90;;;13.66;100.00;97181.53;4992625;28;20761;-71
2022/09/10 01:51:18;;;;;;;10.45;4.60;;;14.40;99.90;;;13.70;100.00;97182.56;4988836;28;20418;-71
2022/09/10 01:54:10;;;;;;;9.77;3.85;;;14.50;99.90;;;13.61;100.00;97178.91;4991965;28;20473;-70
2022/09/10 01:56:48;;;;;;;10.23;4.05;;;14.40;99.90;;;13.52;100.00;97186.69;4992472;28;20390;-71
2022/09/10 01:59:25;;;;;;;12.00;4.47;;;14.30;99.90;;;13.58;100.00;97180.25;4992415;28;20427;-71
2022/09/10 02:02:00;;;;;;;12.25;4.53;;;14.40;99.90;;;13.78;100.00;97176.66;4992441;28;20406;-71
2022/09/10 02:04:27;;;;;;;11.70;5.03;;;14.50;99.90;;;13.64;100.00;97179.16;4991945;28;20764;-70
2022/09/10 02:06:55;;;;;;;10.90;4.50;;;14.50;99.90;;;13.62;100.00;97175.97;4992306;28;20395;-71
2022/09/10 02:09:21;;;;;;;11.60;5.20;;;14.50;99.90;;;13.69;100.00;97173.00;5007071;23;20436;-73
2022/09/10 02:11:50;;;;;;;16.92;5.20;;;14.50;99.90;;;13.75;100.00;97177.22;5011643;28;20409;-73
2022/09/10 02:14:20;;;;;;;16.83;5.72;;;14.60;99.90;;;13.73;100.00;97176.72;5009189;28;20638;-70
2022/09/10 02:16:52;;;;;;;15.45;5.68;;;14.60;99.90;;;13.74;100.00;97178.31;5011566;28;20400;-72
2022/09/10 02:19:19;;;;;;;17.33;5.53;;;14.60;99.90;;;13.72;100.00;97178.56;5015422;28;20404;-70
2022/09/10 02:21:45;;;;;;;20.13;5.80;;;14.60;99.90;;;13.61;100.00;97178.91;5031343;28;20412;-69
2022/09/10 02:24:12;;;;;;;21.33;6.10;;;14.50;99.90;;;13.57;100.00;97176.00;5030812;28;20478;-70
2022/09/10 02:26:42;;;;;;;17.48;5.40;;;14.50;99.90;;;13.52;100.00;97178.69;5031192;28;20411;-70
2022/09/10 02:29:09;;;;;;;14.25;5.65;;;14.40;99.90;;;13.55;100.00;97175.47;5031099;28;20399;-70
2022/09/10 02:31:37;;;;;;;15.13;5.28;;;14.40;99.90;;;13.48;100.00;97177.63;5031111;28;20490;-70
2022/09/10 02:34:03;;;;;;;17.60;5.93;;;14.40;99.90;;;13.50;100.00;97176.31;5030520;28;20415;-71
2022/09/10 02:36:30;;;;;;;19.65;6.55;;;14.40;99.90;;;13.53;100.00;97177.63;5013534;28;20414;-71
2022/09/10 02:38:56;;;;;;;21.57;6.40;;;14.40;99.90;;;13.57;100.00;97174.13;5031053;28;20493;-71
2022/09/10 02:41:23;;;;;;;19.38;6.20;;;14.50;99.90;;;13.61;100.00;97170.94;5030580;28;20402;-71
2022/09/10 02:43:48;;;;;;;24.10;6.83;;;14.50;99.90;;;13.64;100.00;97171.16;5030513;28;20486;-71
2022/09/10 02:46:14;;;;;;;20.40;6.78;;;14.60;99.90;;;13.67;100.00;97169.84;5030211;28;20521;-71
2022/09/10 02:48:41;;;;;;;16.88;6.05;;;14.50;99.90;;;13.69;100.00;97171.13;5030673;28;20792;-71
2022/09/10 02:51:07;;;;;;;18.55;5.90;;;14.50;99.90;;;13.63;100.00;97169.56;5030675;28;20418;-70
2022/09/10 02:53:34;;;;;;;16.47;6.40;;;14.50;99.90;;;13.64;100.00;97171.16;5030115;28;20423;-70
2022/09/10 02:56:01;;;;;;;18.27;6.60;;;14.50;99.90;;;13.62;100.00;97169.84;5030706;28;20745;-71
2022/09/10 02:58:30;;;;;;;18.75;6.25;;;14.50;99.90;;;13.68;100.00;97169.53;5030771;28;20411;-70
2022/09/10 03:01:06;;;;;;;12.90;5.55;;;14.50;99.90;;;13.62;100.00;97162.66;5030392;28;20462;-71
2022/09/10 03:03:32;;;;;;;16.35;6.32;;;14.50;99.90;;;13.62;100.00;97161.88;5030092;28;20403;-70
2022/09/10 03:05:59;;;;;;;21.55;6.97;;;14.50;99.90;;;13.66;100.00;97157.59;5030663;28;20414;-71
2022/09/10 03:08:25;;;;;;;14.90;6.28;;;14.50;99.90;;;13.69;100.00;97163.16;5012868;28;20418;-71
2022/09/10 03:10:51;;;;;;;17.13;6.05;;;14.50;99.90;;;13.66;100.00;97158.41;5030371;28;20787;-71
2022/09/10 03:13:17;;;;;;;15.98;6.50;;;14.50;99.90;;;13.71;100.00;97161.00;5029944;28;20473;-71
2022/09/10 03:15:43;;;;;;;16.98;6.60;;;14.60;99.90;;;13.74;100.00;97157.00;5030454;28;20498;-70
2022/09/10 03:18:09;;;;;;;17.17;6.50;;;14.60;99.90;;;13.67;100.00;97160.00;5030507;28;20402;-71
2022/09/10 03:20:35;;;;;;;15.85;6.22;;;14.60;99.90;;;13.68;100.00;97156.22;5030444;28;20501;-71
2022/09/10 03:23:02;;;;;;;24.53;6.97;;;14.60;99.90;;;13.72;100.00;97156.50;5029777;28;20395;-71
2022/09/10 03:25:28;;;;;;;17.52;7.00;;;14.60;99.90;;;13.77;100.00;97157.25;5030342;28;20429;-71
2022/09/10 03:27:54;;;;;;;14.32;6.50;;;14.60;99.90;;;13.67;100.00;97160.00;5030321;28;20418;-71
2022/09/10 03:30:20;;;;;;;17.05;6.20;;;14.50;99.90;;;13.64;100.00;97159.72;5030146;28;20770;-71
2022/09/10 03:32:46;;;;;;;12.82;5.47;;;14.50;99.90;;;13.62;100.00;97160.00;5029821;28;20460;-71
2022/09/10 03:35:12;;;;;;;17.90;7.00;;;14.50;99.90;;;13.71;100.00;97161.00;5030385;28;20808;-70
2022/09/10 03:37:38;;;;;;;22.52;7.38;;;14.50;99.90;;;13.74;100.00;97155.16;5030254;28;20896;-70
2022/09/10 03:40:09;;;;;;;19.42;6.93;;;14.60;99.90;;;13.69;100.00;97155.16;5030156;28;20417;-70
2022/09/10 03:42:35;;;;;;;15.05;6.35;;;14.60;99.90;;;13.68;100.00;97150.91;5030182;28;20591;-72
2022/09/10 03:45:01;;;;;;;21.48;7.18;;;14.60;99.90;;;13.76;100.00;97153.00;5029682;28;20404;-72
2022/09/10 03:47:27;;;;;;;15.70;6.20;;;14.60;99.90;;;13.63;100.00;97148.28;5029917;28;20482;-72
2022/09/10 03:49:53;;;;;;;20.17;6.97;;;14.50;99.90;;;13.66;100.00;97158.41;5030078;28;20884;-72
2022/09/10 03:52:21;;;;;;;17.35;6.60;;;14.50;99.90;;;13.55;100.00;97155.00;5030285;28;20403;-73
2022/09/10 03:54:49;;;;;;;19.20;7.22;;;14.40;99.90;;;13.59;100.00;97163.22;5015981;28;20783;-73
2022/09/10 03:57:17;;;;;;;18.08;6.88;;;14.50;99.90;;;13.59;100.00;97165.88;5034097;28;20405;-73
2022/09/10 03:59:43;;;;;;;19.85;7.72;;;14.50;99.90;;;13.61;100.00;97162.97;5033793;28;20411;-73
2022/09/10 04:02:08;;;;;;;20.23;7.70;;;14.50;99.90;;;13.75;100.00;97158.63;5033908;28;20413;-72
2022/09/10 04:04:36;;;;;;;18.73;6.85;;;14.50;99.90;;;13.57;100.00;97157.38;5033356;28;20403;-73
2022/09/10 04:07:02;;;;;;;15.32;6.40;;;14.50;99.90;;;13.56;100.00;97161.09;5033802;28;20914;-72
2022/09/10 04:09:30;;;;;;;17.67;7.18;;;14.40;99.90;;;13.61;100.00;97158.41;5033598;28;20415;-73
2022/09/10 04:11:56;;;;;;;23.48;7.40;;;14.40;99.90;;;13.67;100.00;97152.00;5033763;28;20430;-73
2022/09/10 04:14:23;;;;;;;15.27;6.63;;;14.50;99.90;;;13.60;100.00;97162.16;5033029;28;20976;-73
2022/09/10 04:16:49;;;;;;;21.08;6.82;;;14.50;99.90;;;13.57;100.00;97152.06;5033676;28;20895;-72
2022/09/10 04:19:15;;;;;;;17.57;6.60;;;14.50;99.90;;;13.55;100.00;97155.00;5015716;28;20418;-73
2022/09/10 04:21:41;;;;;;;18.88;6.97;;;14.40;99.90;;;13.58;100.00;97161.63;5033559;28;20848;-72
2022/09/10 04:24:10;;;;;;;18.73;7.72;;;14.40;99.90;;;13.61;100.00;97160.31;5032990;28;20441;-72
2022/09/10 04:26:36;;;;;;;15.00;6.30;;;14.40;99.90;;;13.46;100.00;97153.19;5033491;28;20438;-72
2022/09/10 04:29:01;;;;;;;13.50;6.30;;;14.30;99.90;;;13.47;100.00;97158.22;5033368;28;20461;-72
2022/09/10 04:31:29;;;;;;;20.20;6.80;;;14.30;99.90;;;13.47;100.00;97165.41;5033499;28;20486;-73
2022/09/10 04:33:55;;;;;;;21.60;7.18;;;14.40;99.90;;;13.47;100.00;97150.25;5032824;28;20418;-72
2022/09/10 04:36:20;;;;;;;10.52;5.88;;;14.30;99.90;;;13.48;100.00;97164.34;5033371;28;20415;-74
2022/09/10 04:38:46;;;;;;;16.03;6.97;;;14.30;99.90;;;13.53;100.00;97162.44;5033701;28;20415;-72
2022/09/10 04:41:14;;;;;;;14.17;6.30;;;14.40;99.90;;;13.48;100.00;97170.47;5039186;28;20410;-72
2022/09/10 04:43:40;;;;;;;19.67;7.17;;;14.40;99.90;;;13.50;100.00;97178.16;5040433;28;20451;-71
2022/09/10 04:46:06;;;;;;;18.77;6.95;;;14.40;99.90;;;13.45;100.00;97163.06;5036532;28;20423;-70
2022/09/10 04:48:33;;;;;;;18.27;6.75;;;14.20;99.90;;;13.40;100.00;97167.56;5036432;28;20429;-70
2022/09/10 04:50:59;;;;;;;15.82;6.75;;;14.20;99.90;;;13.33;100.00;97173.19;5033207;28;20513;-70
2022/09/10 04:53:26;;;;;;;16.45;6.80;;;14.20;99.90;;;13.37;100.00;97176.91;5037014;28;20494;-71
2022/09/10 04:55:54;;;;;;;10.93;5.70;;;14.20;99.90;;;13.46;100.00;97177.91;5039397;28;20431;-71
2022/09/10 04:58:20;;;;;;;22.50;7.05;;;14.20;99.90;;;13.46;100.00;97177.91;5028722;28;20415;-71
2022/09/10 05:00:46;;;;;;;15.43;6.50;;;14.20;99.90;;;13.37;100.00;97182.22;5031207;28;20407;-72
2022/09/10 05:03:13;;;;;;;13.00;5.93;;;14.20;99.90;;;13.40;100.00;97181.66;5028982;28;20442;-71
2022/09/10 05:05:42;;;;;;;17.48;6.15;;;14.20;99.90;;;13.36;100.00;97183.28;5028761;28;20417;-72
2022/09/10 05:08:08;;;;;;;15.00;6.65;;;14.20;99.90;;;13.41;100.00;97185.13;5030975;28;20776;-72
2022/09/10 05:10:37;;;;;;;16.67;6.20;;;14.20;99.90;;;13.41;100.00;97187.78;5032074;28;20446;-71
2022/09/10 05:13:03;;;;;;;13.75;5.68;;;14.20;99.90;;;13.39;100.00;97193.38;5031746;28;20418;-71
2022/09/10 05:15:30;;;;;;;14.83;5.70;;;14.20;99.90;;;13.45;100.00;97192.28;5032055;28;20411;-69
2022/09/10 05:17:55;;;;;;;12.45;6.15;;;14.30;99.90;;;13.47;100.00;97189.34;5032099;28;20769;-69
2022/09/10 05:20:21;;;;;;;12.37;5.70;;;14.30;99.90;;;13.51;100.00;97188.53;5031968;28;20400;-69
2022/09/10 05:22:49;;;;;;;12.63;5.90;;;14.30;99.90;;;13.59;100.00;97191.69;5031388;28;20472;-70
2022/09/10 05:25:15;;;;;;;16.25;6.10;;;14.40;99.90;;;13.61;100.00;97187.66;5031959;28;20402;-70
2022/09/10 05:27:41;;;;;;;17.73;6.57;;;14.50;99.90;;;13.66;100.00;97198.28;5031928;28;20461;-72
2022/09/10 05:30:08;;;;;;;12.73;5.68;;;14.50;99.90;;;13.60;100.00;97193.28;5031813;28;20399;-73
2022/09/10 05:32:34;;;;;;;14.18;6.57;;;14.40;99.90;;;13.60;100.00;97194.06;5028842;28;20498;-71
2022/09/10 05:35:00;;;;;;;13.85;5.88;;;14.40;99.90;;;13.63;100.00;97193.50;5031518;28;20529;-71
2022/09/10 05:37:26;;;;;;;14.23;6.37;;;14.50;99.90;;;13.63;100.00;97196.16;5032062;28;20930;-71
2022/09/10 05:39:54;;;;;;;13.45;5.85;;;14.50;99.90;;;13.61;100.00;97185.00;5032199;28;20399;-71
2022/09/10 05:42:21;;;;;;;15.20;6.13;;;14.40;99.90;;;13.64;100.00;97196.97;5031772;28;20407;-71
2022/09/10 05:44:46;;;;;;;11.38;5.13;;;14.40;99.90;;;13.59;100.00;97186.38;5031278;28;20445;-71
2022/09/10 05:47:12;;;;;;;11.32;4.63;;;14.40;99.90;;;13.66;100.00;97190.31;5030864;28;20399;-71
2022/09/10 05:49:38;;;;;;;16.02;5.80;;;14.40;99.90;;;13.71;100.00;97187.63;5026122;28;20420;-71
2022/09/10 05:52:04;;;;;;;13.68;5.80;;;14.50;99.90;;;13.66;100.00;97194.84;5032374;28;20457;-72
2022/09/10 05:54:30;;;;;;;13.77;5.50;;;14.50;99.90;;;13.56;100.00;97195.69;5029238;28;20999;-71
2022/09/10 05:56:57;;;;;;;12.43;5.30;;;14.30;99.90;;;13.55;100.00;97200.19;5030655;28;20414;-72
2022/09/10 05:59:24;;;;;;;13.32;5.90;;;14.40;99.90;;;13.60;100.00;97193.28;5029324;28;20477;-71
2022/09/10 06:01:50;;;;;;;16.33;5.95;;;14.40;99.90;;;13.58;100.00;97196.22;5032772;28;20413;-71
2022/09/10 06:04:20;;;;;;;15.25;5.53;;;14.40;99.90;;;13.62;100.00;97201.75;5039367;28;20778;-71
2022/09/10 06:06:46;;;;;;;11.80;5.65;;;14.40;99.90;;;13.54;100.00;97203.13;5046048;28;20492;-71
2022/09/10 06:09:12;;;;;;;10.98;5.20;;;14.30;99.90;;;13.56;100.00;97203.66;5030652;28;20418;-71
2022/09/10 06:11:38;;;;;;;12.48;5.20;;;14.40;99.90;;;13.59;100.00;97202.31;5031521;28;20518;-72
2022/09/10 06:14:14;;;;;;;15.68;5.40;;;14.40;99.90;;;13.48;100.00;97198.91;5026894;28;20522;-71
2022/09/10 06:16:40;;;;;;;15.23;5.78;;;14.30;99.90;;;13.51;100.00;97195.72;5027606;28;20422;-72
2022/09/10 06:19:07;;;;;;;12.20;5.60;;;14.30;99.90;;;13.53;100.00;97206.88;5030797;28;20417;-73
2022/09/10 06:21:33;;;;;;;14.05;5.50;;;14.30;99.90;;;13.66;100.00;97208.13;5030784;28;20453;-73
2022/09/10 06:23:59;;;;;;;13.27;5.18;;;14.40;99.90;;;13.65;100.00;97207.34;5030299;28;20403;-74
2022/09/10 06:26:26;;;;;;;13.88;5.32;;;14.40;99.90;;;13.64;100.00;97204.94;5033482;28;20411;-71
2022/09/10 06:28:52;;;;;;;11.45;5.60;;;14.40;99.90;;;13.61;100.00;97206.28;5050651;28;20409;-73
2022/09/10 06:31:19;;;;;;;17.20;5.70;;;14.40;99.90;;;13.74;100.00;97203.03;5051092;28;20965;-73
2022/09/10 06:33:47;;;;;;;10.93;5.30;;;14.50;99.90;;;13.72;100.00;97204.38;5016076;28;20856;-72
2022/09/10 06:36:14;;;;;;;11.60;5.68;;;14.50;99.90;;;13.82;100.00;97204.31;5031009;28;20434;-73
2022/09/10 06:38:40;;;;;;;14.95;5.47;;;14.60;99.90;;;13.78;100.00;97211.25;5030940;28;20418;-73
2022/09/10 06:41:11;;;;;;;11.30;4.60;;;14.60;99.90;;;13.83;100.00;97201.34;5030745;28;20403;-73
2022/09/10 06:43:40;;;;;;;15.70;4.80;;;14.60;99.90;;;13.68;100.00;97214.75;5030334;28;20463;-73
2022/09/10 06:46:09;;;;;;;11.35;4.85;;;14.50;99.90;;;13.78;100.00;97216.56;5031008;28;20446;-73
2022/09/10 06:48:39;;;;;;;10.35;4.40;;;14.50;99.90;;;13.86;100.00;97216.78;5029974;28;20415;-73
2022/09/10 06:51:07;;;;;;;12.13;5.00;;;14.60;99.90;;;13.92;100.00;97218.34;5025352;28;20410;-73
2022/09/10 06:53:34;;;;;;;11.07;4.88;;;14.70;99.90;;;13.93;100.00;97213.81;5030001;28;20457;-73
2022/09/10 06:56:04;;;;;;;11.73;4.20;;;14.70;99.90;;;13.77;100.00;97215.78;5030552;28;20435;-73
2022/09/10 06:58:34;;;;;;;11.50;4.35;;;14.50;99.90;;;13.85;100.00;97214.41;5030751;28;20770;-72
2022/09/10 07:01:06;;;;;;;12.57;4.40;;;14.60;99.90;;;13.87;100.00;97212.25;5030677;28;20418;-73
2022/09/10 07:03:32;;;;;;;9.17;3.90;;;14.60;99.90;;;13.99;100.00;97228.66;5030157;28;20410;-72
2022/09/10 07:06:04;;;;;;;8.27;3.78;;;14.70;99.90;;;14.10;100.00;97232.88;5030446;28;20503;-73
2022/09/10 07:08:30;;;;;;;11.98;4.30;;;14.80;99.90;;;14.04;100.00;97239.31;5030515;28;20456;-74
2022/09/10 07:11:00;;;;;;;9.88;4.28;;;14.80;99.90;;;14.14;100.00;97236.56;5028235;28;20878;-74
2022/09/10 07:13:26;;;;;;;14.32;4.60;;;14.90;99.90;;;14.13;100.00;97240.31;5026425;28;20421;-73
2022/09/10 07:15:52;;;;;;;12.95;4.25;;;14.90;99.90;;;14.14;100.00;97236.56;5017898;28;20424;-72
2022/09/10 07:18:18;;;;;;;14.43;4.93;;;14.90;99.90;;;14.24;100.00;97247.13;5010661;28;20401;-72
2022/09/10 07:20:45;;;;;;;9.75;4.40;;;15.00;99.90;;;14.15;100.00;97250.66;5010639;28;20491;-72
2022/09/10 07:23:15;;;;;;;7.93;4.07;;;14.90;99.90;;;14.17;100.00;97257.31;5010279;28;20404;-73
2022/09/10 07:25:41;;;;;;;8.50;3.75;;;14.90;99.90;;;14.18;100.00;97258.91;5010556;28;20798;-73
2022/09/10 07:28:12;;;;;;;7.18;3.63;;;14.90;99.90;;;14.15;100.00;97262.09;5010444;28;20462;-72
2022/09/10 07:30:38;;;;;;;9.18;3.42;;;14.90;99.90;;;14.19;100.00;97259.69;5010463;28;20405;-72
2022/09/10 07:33:04;;;;;;;11.10;4.00;;;14.90;99.90;;;14.27;100.00;97259.91;5002074;28;20426;-73
2022/09/10 07:35:33;;;;;;;9.85;3.30;;;15.00;99.90;;;14.17;100.00;97264.50;5030059;28;20415;-72
2022/09/10 07:37:59;;;;;;;8.15;3.58;;;14.90;99.90;;;14.26;100.00;97273.50;5030241;28;20421;-73
2022/09/10 07:40:27;;;;;;;6.80;3.50;;;14.90;99.90;;;14.24;100.00;97273.75;5030038;28;20410;-72
2022/09/10 07:42:54;;;;;;;9.25;3.08;;;15.00;99.90;;;13.99;100.00;97267.78;5029680;28;20395;-72
2022/09/10 07:45:20;;;;;;;9.15;3.20;;;14.80;99.90;;;13.98;100.00;97274.22;5029242;28;20419;-72
2022/09/10 07:47:46;;;;;;;8.18;3.40;;;14.70;99.90;;;14.18;100.00;97282.84;5026364;28;20499;-73
2022/09/10 07:50:13;;;;;;;8.13;3.70;;;14.90;99.90;;;14.26;100.00;97287.59;5010280;28;20906;-72
2022/09/10 07:52:39;;;;;;;10.88;3.60;;;15.00;99.90;;;14.25;100.00;97286.00;5010138;28;20429;-71
2022/09/10 07:55:07;;;;;;;6.97;3.72;;;14.90;99.90;;;14.25;100.00;97286.00;5010137;28;20412;-72
2022/09/10 07:57:36;;;;;;;7.47;3.80;;;15.00;99.90;;;14.37;100.00;97279.53;5022693;28;20896;-72
2022/09/10 08:00:05;;;;;;;7.00;3.42;;;15.10;99.90;;;14.52;100.00;97282.91;5028563;28;20399;-72
2022/09/10 08:02:31;;;;;;;8.83;3.60;;;15.30;99.90;;;14.71;100.00;97280.38;5003839;28;20543;-72
2022/09/10 08:04:57;;;;;;;7.20;3.30;;;15.40;99.90;;;14.83;100.00;97293.31;5029610;28;20498;-72
2022/09/10 08:07:22;;;;;;;6.93;2.97;;;15.60;99.90;;;14.79;100.00;97285.09;5029956;28;20410;-72
2022/09/10 08:09:48;;;;;;;8.15;3.47;;;15.50;99.90;;;14.88;100.00;97286.09;5036438;23;20434;-71
2022/09/10 08:12:16;;;;;;;7.78;2.40;;;15.60;99.90;;;14.58;100.00;97297.00;4989243;28;20406;-71
2022/09/10 08:14:43;;;;;;;6.28;2.60;;;15.30;99.90;;;14.73;100.00;97291.53;4984988;28;20418;-71
2022/09/10 08:17:09;;;;;;;7.60;2.72;;;15.40;99.90;;;14.74;100.00;97287.78;4982227;28;20771;-71
2022/09/10 08:19:35;;;;;;;8.38;2.50;;;15.40;99.90;;;14.61;100.00;97291.09;4988023;28;20891;-70
2022/09/10 08:22:02;;;;;;;6.60;2.15;;;15.40;99.90;;;14.59;100.00;97295.91;4989579;28;20461;-70
2022/09/10 08:24:28;;;;;;;7.70;2.40;;;15.30;99.90;;;14.88;100.00;97294.06;4989119;28;20828;-70
2022/09/10 08:26:54;;;;;;;8.80;2.05;;;15.50;99.90;;;14.64;100.00;97298.53;4989636;28;20485;-71
2022/09/10 08:29:20;;;;;;;4.93;2.22;;;15.40;99.90;;;14.89;100.00;97300.16;4989495;28;20414;-69
2022/09/10 08:31:47;;;;;;;5.18;2.28;;;15.50;99.90;;;14.95;100.00;97293.75;4989273;28;20494;-69
2022/09/10 08:34:13;;;;;;;8.32;2.92;;;15.70;99.90;;;15.04;100.00;97298.16;4988642;28;20422;-69
2022/09/10 08:36:39;;;;;;;10.15;2.60;;;15.80;99.90;;;15.07;100.00;97296.81;4987815;28;20418;-69
2022/09/10 08:39:05;;;;;;;4.65;2.00;;;15.80;99.90;;;15.10;100.00;97304.25;4989903;28;20815;-70
2022/09/10 08:41:45;;;;;;;6.85;2.20;;;15.70;99.90;;;15.05;100.00;97302.41;4992653;28;20425;-69
2022/09/10 08:44:27;;;;;;;6.13;2.20;;;15.80;99.90;;;15.10;100.00;97299.72;4991656;28;20777;-70
2022/09/10 08:47:05;;;;;;;5.30;1.97;;;15.80;99.90;;;15.17;100.00;97303.94;4990509;28;20398;-69
2022/09/10 08:49:36;;;;;;;9.48;2.33;;;15.90;99.90;;;15.39;100.00;97310.34;4987020;28;20437;-69
2022/09/10 08:52:12;;;;;;;5.55;2.03;;;16.00;99.90;;;15.42;100.00;97307.09;4990165;28;21139;-69
2022/09/10 08:54:43;;;;;;;6.72;1.77;;;16.10;99.90;;;15.47;100.00;97308.94;4991443;28;20418;-69
2022/09/10 08:57:22;;;;;;;5.90;1.70;;;16.20;99.90;;;15.49;100.00;97312.91;4992313;28;20399;-69
2022/09/10 08:59:52;;;;;;;6.25;1.75;;;16.20;99.90;;;15.59;100.00;97314.69;4991711;28;20407;-69
2022/09/10 09:02:28;;;;;;;8.27;1.90;;;16.20;99.90;;;15.41;100.00;97312.75;4991776;28;20414;-69
2022/09/10 09:04:59;;;;;;;9.00;2.10;;;16.20;99.90;;;15.58;100.00;97304.28;4972548;28;20499;-69
2022/09/10 09:07:38;;;;;;;7.18;2.03;;;16.20;99.90;;;15.80;100.00;97315.25;4972843;28;20447;-69
2022/09/10 09:10:16;;;;;;;9.47;2.03;;;16.40;99.90;;;15.84;100.00;97301.06;4913249;28;1719049;-70
2022/09/10 09:12:55;;;;;;;8.77;2.00;;;16.50;99.90;;;15.45;100.00;97317.22;4973560;28;20552;-69
2022/09/10 09:15:27;;;;;;;12.50;2.08;;;16.10;99.90;;;15.56;100.00;97312.59;4979975;28;20738;-68
2022/09/10 09:18:16;;;;;;;11.20;2.10;;;16.20;99.90;;;15.67;100.00;97316.72;4993009;28;20869;-67
2022/09/10 09:20:46;;;;;;;9.43;2.10;;;16.30;99.90;;;15.70;100.00;97318.84;4992357;28;20406;-69
2022/09/10 09:23:20;;;;;;;9.77;1.95;;;16.40;99.90;;;15.70;100.00;97318.84;4989349;28;20498;-70
2022/09/10 09:25:48;;;;;;;10.27;1.80;;;16.40;99.90;;;15.62;100.00;97314.13;4992430;28;20978;-70
2022/09/10 09:28:27;;;;;;;6.72;1.63;;;16.20;99.90;;;15.63;100.00;97323.72;4991389;28;20453;-70
2022/09/10 09:30:56;;;;;;;10.48;1.80;;;16.30;99.90;;;15.78;100.00;97318.22;4990182;28;20425;-70
2022/09/10 09:33:24;;;;;;;5.90;1.50;;;16.40;99.90;;;15.95;100.00;97315.03;4992245;28;20411;-70
2022/09/10 09:35:55;;;;;;;5.68;1.50;;;16.50;99.90;;;15.96;100.00;97323.84;4992695;28;20912;-70
2022/09/10 09:38:24;;;;;;;7.60;1.83;;;16.60;99.90;;;15.95;100.00;97320.38;4991322;28;20413;-70
2022/09/10 09:40:55;;;;;;;7.47;1.83;;;16.60;99.90;;;16.00;100.00;97315.00;4991348;28;20395;-70
2022/09/10 09:43:33;;;;;;;6.80;1.55;;;16.70;99.90;;;15.77;100.00;97319.28;4992000;28;20483;-69
2022/09/10 09:46:00;;;;;;;5.95;1.50;;;16.50;99.90;;;15.81;100.00;97325.63;4992715;28;20438;-70
2022/09/10 09:48:38;;;;;;;8.00;1.70;;;16.40;99.90;;;15.77;100.00;97321.97;4992722;28;20403;-69
2022/09/10 09:51:07;;;;;;;4.82;1.50;;;16.50;99.90;;;15.95;100.00;97317.72;4991416;28;20399;-70
2022/09/10 09:53:33;;;;;;;7.10;1.55;;;16.60;99.90;;;16.05;100.00;97322.13;4992068;28;20426;-69
2022/09/10 09:56:02;;;;;;;6.43;1.60;;;16.70;99.90;;;15.87;100.00;97319.16;4992576;28;20644;-69
2022/09/10 09:58:34;;;;;;;3.92;1.42;;;16.60;99.90;;;16.08;100.00;97317.03;4992504;28;20416;-69
2022/09/10 10:01:13;;;;;;;6.35;1.60;;;16.70;99.90;;;16.08;100.00;97326.91;4992382;28;20768;-69
2022/09/10 10:04:01;;;;;;;3.10;1.20;;;16.70;99.90;;;16.03;100.00;97319.75;4991895;28;20402;-69
2022/09/10 10:06:31;;;;;;;9.20;1.60;;;16.60;99.90;;;16.09;100.00;97317.78;4992310;28;20896;-69
2022/09/10 10:09:03;;;;;;;4.95;1.48;;;16.70;99.90;;;16.20;100.00;97306.69;4992305;28;20409;-69
2022/09/10 10:11:47;;;;;;;6.68;1.40;;;16.80;99.90;;;16.41;100.00;97314.41;4992025;28;20407;-69
2022/09/10 10:14:38;;;;;;;6.38;1.48;;;17.00;99.90;;;16.48;100.00;97314.84;4991545;28;20908;-69
2022/09/10 10:17:29;;;;;;;8.03;1.30;;;17.00;99.90;;;16.54;100.00;97317.13;4992183;28;20414;-69